CYYC

Calgary International Airport

Calgary, Alberta, Canada
METAR CYYC 220600Z 28009KT 15SM SKC 05/M09 A3001 RMK SLP182
Observed Flight Rules
Apr-22 @ 06:00 UTC (59 minutes ago) Visual Flight Rules
Wind Visibility Clouds
280° at 9 knots 15 miles
  • Clear skies
Temperatures Readings
Current 5°C / 41°F
Dewpoint -9°C / 16°F
Humidity 36%
Altimeter 30.01" Hg
Pressure 1018.2 hPa
Elevation 1084
METAR CYYC 220600Z 28009KT 15SM SKC 05/M09 A3001 RMK SLP182
Observed Flight Rules
Apr-22 @ 06:00 UTC
(59 minutes ago)
VFR
Wind Visibility
280° at 9 knots 15 miles
Clouds
  • Clear skies
Temperature Dewpoint
5°C / 41°F -9°C / 16°F
Humidity Altimeter Pressure
36% 30.01" Hg 1018.2 hPa